createdAt,value
2023-04-09T00:01:50.916Z,609.30
2023-04-09T00:04:19.276Z,584.80
2023-04-09T00:06:47.631Z,590.50
2023-04-09T00:09:16.398Z,627.80
2023-04-09T00:11:44.757Z,592.70
2023-04-09T00:14:13.052Z,598.50
2023-04-09T00:16:41.479Z,614.30
2023-04-09T00:19:09.893Z,623.60
2023-04-09T00:21:38.327Z,599.20
2023-04-09T00:24:07.040Z,609.60
2023-04-09T00:26:35.706Z,597.00
2023-04-09T00:29:04.370Z,587.80
2023-04-09T00:31:33.434Z,610.00
2023-04-09T00:34:01.864Z,610.30
2023-04-09T00:36:31.181Z,634.60
2023-04-09T00:38:59.598Z,596.90
2023-04-09T00:41:28.690Z,604.10
2023-04-09T00:43:57.900Z,587.30
2023-04-09T00:46:26.604Z,584.70
2023-04-09T00:48:55.215Z,575.70
2023-04-09T00:51:23.692Z,587.10
2023-04-09T00:53:53.883Z,591.60
2023-04-09T00:56:23.826Z,562.80
2023-04-09T00:58:52.504Z,581.50
2023-04-09T01:01:21.581Z,554.00
2023-04-09T01:03:50.208Z,583.60
2023-04-09T01:06:27.270Z,582.10
2023-04-09T01:09:06.608Z,574.90
2023-04-09T01:11:59.849Z,566.50
2023-04-09T01:14:38.184Z,568.50
2023-04-09T01:17:22.264Z,573.80
2023-04-09T01:20:06.643Z,556.40
2023-04-09T01:22:56.832Z,550.60
2023-04-09T01:26:02.534Z,532.20
2023-04-09T01:28:47.042Z,549.40
2023-04-09T01:31:21.851Z,589.60
2023-04-09T01:33:52.748Z,583.60
2023-04-09T01:36:22.187Z,553.50
2023-04-09T01:38:52.623Z,550.60
2023-04-09T01:41:23.288Z,574.00
2023-04-09T01:43:52.403Z,573.30
2023-04-09T01:46:23.123Z,589.80
2023-04-09T01:48:52.746Z,568.80
2023-04-09T01:51:21.691Z,564.30
2023-04-09T01:53:50.055Z,541.50
2023-04-09T01:56:18.324Z,527.50
2023-04-09T01:58:46.633Z,567.90
2023-04-09T02:01:25.107Z,567.90
2023-04-09T02:04:07.296Z,565.40
2023-04-09T02:06:53.794Z,527.70
2023-04-09T02:09:24.789Z,542.20
2023-04-09T02:11:54.154Z,554.50
2023-04-09T02:14:25.401Z,537.00
2023-04-09T02:16:54.030Z,571.50
2023-04-09T02:19:22.273Z,579.20
2023-04-09T02:21:50.543Z,557.70
2023-04-09T02:24:18.906Z,534.90
2023-04-09T02:26:47.118Z,559.00
2023-04-09T02:29:15.523Z,534.10
2023-04-09T02:31:45.470Z,545.80
2023-04-09T02:34:14.054Z,555.40
2023-04-09T02:36:42.429Z,538.20
2023-04-09T02:39:11.315Z,523.50
2023-04-09T02:41:39.653Z,587.20
2023-04-09T02:44:08.123Z,584.40
2023-04-09T02:46:36.684Z,547.40
2023-04-09T02:49:05.233Z,555.90
2023-04-09T02:51:36.584Z,571.70
2023-04-09T02:54:05.259Z,537.50
2023-04-09T02:56:33.859Z,576.90
2023-04-09T02:59:02.437Z,569.30
2023-04-09T03:01:31.210Z,562.80
2023-04-09T03:04:01.886Z,519.90
2023-04-09T03:06:31.212Z,556.50
2023-04-09T03:08:59.832Z,560.30
2023-04-09T03:11:28.860Z,558.70
2023-04-09T03:13:57.779Z,539.10
2023-04-09T03:16:26.670Z,560.50
2023-04-09T03:18:55.114Z,567.20
2023-04-09T03:21:23.911Z,544.20
2023-04-09T03:23:52.483Z,548.60
2023-04-09T03:26:21.458Z,577.10
2023-04-09T03:28:50.930Z,585.70
2023-04-09T03:31:19.840Z,575.70
2023-04-09T03:33:48.484Z,548.30
2023-04-09T03:36:17.888Z,547.50
2023-04-09T03:39:04.391Z,571.10
2023-04-09T03:41:42.351Z,546.60
2023-04-09T03:44:14.309Z,571.50
2023-04-09T03:46:55.031Z,540.50
2023-04-09T03:49:24.016Z,544.40
2023-04-09T03:51:52.352Z,557.60
2023-04-09T03:54:21.376Z,571.00
2023-04-09T03:56:51.127Z,533.50
2023-04-09T03:59:23.251Z,595.10
2023-04-09T04:01:51.912Z,583.20
2023-04-09T04:04:23.589Z,568.90
2023-04-09T04:06:56.646Z,562.50
2023-04-09T04:09:34.611Z,539.90
2023-04-09T04:12:09.536Z,556.20
2023-04-09T04:15:10.386Z,544.20
2023-04-09T04:17:43.489Z,504.60
2023-04-09T04:20:19.692Z,523.10
2023-04-09T04:23:18.183Z,542.60
2023-04-09T04:25:54.881Z,529.50
2023-04-09T04:28:31.105Z,568.40
2023-04-09T04:31:00.556Z,542.50
2023-04-09T04:33:30.116Z,553.70
2023-04-09T04:36:10.117Z,561.80
2023-04-09T04:38:42.881Z,581.30
2023-04-09T04:41:19.051Z,539.60
2023-04-09T04:43:53.327Z,601.60
2023-04-09T04:46:24.131Z,543.70
2023-04-09T04:48:52.967Z,549.20
2023-04-09T04:51:23.083Z,541.30
2023-04-09T04:54:07.675Z,552.60
2023-04-09T04:56:36.052Z,564.60
2023-04-09T04:59:13.264Z,555.30
2023-04-09T05:01:56.635Z,491.70
2023-04-09T05:04:25.989Z,550.00
2023-04-09T05:06:55.254Z,550.30
2023-04-09T05:09:24.348Z,578.00
2023-04-09T05:12:06.103Z,567.20
2023-04-09T05:14:35.343Z,550.50
2023-04-09T05:17:04.253Z,558.10
2023-04-09T05:19:41.648Z,579.00
2023-04-09T05:22:11.220Z,569.70
2023-04-09T05:24:39.718Z,559.50
2023-04-09T05:27:08.200Z,525.10
2023-04-09T05:29:39.783Z,561.70
2023-04-09T05:32:09.771Z,562.70
2023-04-09T05:34:39.747Z,556.30
2023-04-09T05:37:08.689Z,565.40
2023-04-09T05:39:37.024Z,562.80
2023-04-09T05:42:05.661Z,550.30
2023-04-09T05:44:49.763Z,572.40
2023-04-09T05:47:22.222Z,579.50
2023-04-09T05:50:00.800Z,559.00
2023-04-09T05:52:29.325Z,527.40
2023-04-09T05:54:58.453Z,566.20
2023-04-09T05:57:34.095Z,569.80
2023-04-09T06:00:07.013Z,559.20
2023-04-09T06:02:45.762Z,551.90
2023-04-09T06:05:14.783Z,558.60
2023-04-09T06:07:43.270Z,566.50
2023-04-09T06:10:11.862Z,530.30
2023-04-09T06:12:40.812Z,546.00
2023-04-09T06:15:11.028Z,566.50
2023-04-09T06:17:39.303Z,540.70
2023-04-09T06:20:08.584Z,562.70
2023-04-09T06:22:37.605Z,544.30
2023-04-09T06:25:06.891Z,550.10
2023-04-09T06:27:35.609Z,531.10
2023-04-09T06:30:04.265Z,553.70
2023-04-09T06:32:37.657Z,549.20
2023-04-09T06:35:11.955Z,565.10
2023-04-09T06:37:40.586Z,562.90
2023-04-09T06:40:09.859Z,534.50
2023-04-09T06:42:38.417Z,500.00
2023-04-09T06:45:19.655Z,554.60
2023-04-09T06:47:48.558Z,532.20
2023-04-09T06:50:17.095Z,537.30
2023-04-09T06:52:45.670Z,513.80
2023-04-09T06:55:14.495Z,558.90
2023-04-09T06:57:42.978Z,515.00
2023-04-09T07:00:12.383Z,543.40
2023-04-09T07:02:40.999Z,531.00
2023-04-09T07:05:10.268Z,531.00
2023-04-09T07:07:39.038Z,519.50
2023-04-09T07:10:08.175Z,563.80
2023-04-09T07:12:36.534Z,543.60
2023-04-09T07:15:10.212Z,544.40
2023-04-09T07:17:38.752Z,534.80
2023-04-09T07:20:07.718Z,545.80
2023-04-09T07:22:36.605Z,502.80
2023-04-09T07:25:05.777Z,542.00
2023-04-09T07:27:34.071Z,490.20
2023-04-09T07:30:03.491Z,489.90
2023-04-09T07:32:31.793Z,524.70
2023-04-09T07:35:00.235Z,546.60
2023-04-09T07:37:28.715Z,516.30
2023-04-09T07:39:57.384Z,505.70
2023-04-09T07:42:27.646Z,533.10
2023-04-09T07:44:56.933Z,470.50
2023-04-09T07:47:25.534Z,454.50
2023-04-09T07:49:54.100Z,472.40
2023-04-09T07:52:22.644Z,447.10
2023-04-09T07:54:51.492Z,461.70
2023-04-09T07:57:19.867Z,467.00
2023-04-09T07:59:48.645Z,469.80
2023-04-09T08:02:17.983Z,456.10
2023-04-09T08:04:47.225Z,460.90
2023-04-09T08:07:15.899Z,466.70
2023-04-09T08:09:44.305Z,475.50
2023-04-09T08:12:12.668Z,452.80
2023-04-09T08:14:41.545Z,436.00
2023-04-09T08:17:09.826Z,448.50
2023-04-09T08:19:40.468Z,451.70
2023-04-09T08:22:10.099Z,469.40
2023-04-09T08:24:40.435Z,440.20
2023-04-09T08:27:08.815Z,417.50
2023-04-09T08:29:38.859Z,443.90
2023-04-09T08:32:07.336Z,449.00
2023-04-09T08:34:35.757Z,435.30
2023-04-09T08:37:03.936Z,436.10
2023-04-09T08:39:32.145Z,426.90
2023-04-09T08:42:03.831Z,406.90
2023-04-09T08:48:11.260Z,396.10
2023-04-09T08:50:39.654Z,416.10
2023-04-09T08:53:09.928Z,397.50
2023-04-09T08:55:38.688Z,379.90
2023-04-09T08:58:07.731Z,392.60
2023-04-09T09:00:36.078Z,418.80
2023-04-09T09:03:14.846Z,416.60
2023-04-09T09:05:46.219Z,429.50
2023-04-09T09:08:26.241Z,366.70
2023-04-09T09:10:54.508Z,399.80
2023-04-09T09:13:27.642Z,388.40
2023-04-09T09:16:14.093Z,385.40
2023-04-09T09:18:44.739Z,387.50
2023-04-09T09:21:15.474Z,409.30
2023-04-09T09:23:44.728Z,371.60
2023-04-09T09:26:18.256Z,389.70
2023-04-09T09:28:49.633Z,401.80
2023-04-09T09:31:20.713Z,366.60
2023-04-09T09:33:50.858Z,353.00
2023-04-09T09:36:35.689Z,363.50
2023-04-09T09:39:05.572Z,395.90
2023-04-09T09:41:33.865Z,356.70
2023-04-09T09:44:04.923Z,362.30
2023-04-09T09:46:42.620Z,367.90
2023-04-09T09:49:10.874Z,374.10
2023-04-09T09:51:41.605Z,337.40
2023-04-09T09:54:13.302Z,342.50
2023-04-09T09:56:44.166Z,343.20
2023-04-09T09:59:27.225Z,329.30
2023-04-09T10:02:23.155Z,306.90
2023-04-09T10:04:53.301Z,245.50
2023-04-09T10:07:22.785Z,276.40
2023-04-09T10:09:53.307Z,289.30
2023-04-09T10:12:27.372Z,301.80
2023-04-09T10:14:56.840Z,260.00
2023-04-09T10:17:25.136Z,252.10
2023-04-09T10:20:17.192Z,253.80
2023-04-09T10:22:50.419Z,245.70
2023-04-09T10:25:19.250Z,223.90
2023-04-09T10:28:00.225Z,227.30
2023-04-09T10:30:36.189Z,258.80
2023-04-09T10:33:16.788Z,225.60
2023-04-09T10:35:47.403Z,214.40
2023-04-09T10:38:15.839Z,225.30
2023-04-09T10:40:53.503Z,206.10
2023-04-09T10:43:22.463Z,249.20
2023-04-09T10:45:53.730Z,266.60
2023-04-09T10:48:26.311Z,254.30
2023-04-09T10:50:55.913Z,209.30
2023-04-09T10:53:26.127Z,234.70
2023-04-09T10:55:55.429Z,209.20
2023-04-09T10:58:23.662Z,197.20
2023-04-09T11:00:54.218Z,215.00
2023-04-09T11:03:31.662Z,251.60
2023-04-09T11:06:03.405Z,230.50
2023-04-09T11:08:33.885Z,193.10
2023-04-09T11:11:03.804Z,232.70
2023-04-09T11:13:45.009Z,227.60
2023-04-09T11:16:24.726Z,203.20
2023-04-09T11:18:56.378Z,205.60
2023-04-09T11:21:31.569Z,186.00
2023-04-09T11:23:59.861Z,213.70
2023-04-09T11:26:36.693Z,206.40
2023-04-09T11:29:08.333Z,212.90
2023-04-09T11:31:37.485Z,191.30
2023-04-09T11:34:05.877Z,207.40
2023-04-09T11:36:35.143Z,181.40
2023-04-09T11:39:05.893Z,179.40
2023-04-09T11:41:39.137Z,193.20
2023-04-09T11:44:11.089Z,164.20
2023-04-09T11:46:42.223Z,163.50
2023-04-09T11:49:14.006Z,162.30
2023-04-09T11:51:43.066Z,166.70
2023-04-09T11:54:12.611Z,205.00
2023-04-09T11:56:41.175Z,153.80
2023-04-09T11:59:10.245Z,161.40
2023-04-09T12:01:38.849Z,122.60
2023-04-09T12:04:12.193Z,130.70
2023-04-09T12:06:42.931Z,119.00
2023-04-09T12:09:14.405Z,152.80
2023-04-09T12:11:49.191Z,148.90
2023-04-09T12:14:19.354Z,134.90
2023-04-09T12:16:54.186Z,125.40
2023-04-09T12:19:25.929Z,124.20
2023-04-09T12:21:58.593Z,104.10
2023-04-09T12:24:28.258Z,131.40
2023-04-09T12:26:57.736Z,112.10
2023-04-09T12:29:27.163Z,116.30
2023-04-09T12:31:56.940Z,145.20
2023-04-09T12:34:27.534Z,129.60
2023-04-09T12:36:56.296Z,140.40
2023-04-09T12:39:24.778Z,131.30
2023-04-09T12:41:54.664Z,97.90
2023-04-09T12:44:23.110Z,87.90
2023-04-09T12:46:51.647Z,115.20
2023-04-09T12:49:20.252Z,93.80
2023-04-09T12:51:48.611Z,102.40
2023-04-09T12:54:18.086Z,101.00
2023-04-09T12:56:46.823Z,91.90
2023-04-09T12:59:15.634Z,85.90
2023-04-09T13:01:44.484Z,82.00
2023-04-09T13:04:13.085Z,79.50
2023-04-09T13:06:41.838Z,86.30
2023-04-09T13:09:10.511Z,88.90
2023-04-09T13:11:39.064Z,79.10
2023-04-09T13:14:07.583Z,90.70
2023-04-09T13:16:36.043Z,89.40
2023-04-09T13:19:04.308Z,94.80
2023-04-09T13:21:32.618Z,97.10
2023-04-09T13:24:00.981Z,80.40
2023-04-09T13:26:29.136Z,88.40
2023-04-09T13:28:57.781Z,94.00
2023-04-09T13:31:28.178Z,75.50
2023-04-09T13:33:57.918Z,78.10
2023-04-09T13:36:28.124Z,84.10
2023-04-09T13:38:56.722Z,87.70
2023-04-09T13:41:29.801Z,72.80
2023-04-09T13:43:59.973Z,78.00
2023-04-09T13:46:28.436Z,79.00
2023-04-09T13:48:56.812Z,71.70
2023-04-09T13:51:27.885Z,66.10
2023-04-09T13:53:59.877Z,81.80
2023-04-09T13:56:29.895Z,77.90
2023-04-09T13:58:58.429Z,68.50
2023-04-09T14:01:29.629Z,70.90
2023-04-09T14:04:16.274Z,80.50
2023-04-09T14:06:44.978Z,67.10
2023-04-09T14:09:13.517Z,66.70
2023-04-09T14:11:43.325Z,71.80
2023-04-09T14:14:15.312Z,65.60
2023-04-09T14:16:45.376Z,60.80
2023-04-09T14:19:13.917Z,68.10
2023-04-09T14:21:42.279Z,59.40
2023-04-09T14:24:12.828Z,53.90
2023-04-09T14:26:42.051Z,65.80
2023-04-09T14:29:12.382Z,62.60
2023-04-09T14:31:43.068Z,44.80
2023-04-09T14:34:11.718Z,48.80
2023-04-09T14:36:44.636Z,54.90
2023-04-09T14:39:12.933Z,50.90
2023-04-09T14:41:41.814Z,50.40
2023-04-09T14:44:10.070Z,42.90
2023-04-09T14:46:38.549Z,42.20
2023-04-09T14:49:07.136Z,45.60
2023-04-09T14:51:35.665Z,43.00
2023-04-09T14:54:04.323Z,45.40
2023-04-09T14:56:32.696Z,42.70
2023-04-09T14:59:07.685Z,41.10
2023-04-09T15:01:40.062Z,42.00
2023-04-09T15:04:08.760Z,40.10
2023-04-09T15:06:37.494Z,41.70
2023-04-09T15:09:05.856Z,43.10
2023-04-09T15:11:36.440Z,37.10
2023-04-09T15:14:04.731Z,41.20
2023-04-09T15:16:37.559Z,41.10
2023-04-09T15:19:09.177Z,44.00
2023-04-09T15:21:37.864Z,39.40
2023-04-09T15:24:06.380Z,37.30
2023-04-09T15:26:35.036Z,41.70
2023-04-09T15:29:07.354Z,41.20
2023-04-09T15:31:36.528Z,38.60
2023-04-09T15:34:05.363Z,38.90
2023-04-09T15:36:34.620Z,46.10
2023-04-09T15:39:06.981Z,36.00
2023-04-09T15:41:35.546Z,42.40
2023-04-09T15:44:05.035Z,35.40
2023-04-09T15:46:33.763Z,48.70
2023-04-09T15:49:02.100Z,42.20
2023-04-09T15:51:31.410Z,41.40
2023-04-09T15:54:00.423Z,37.70
2023-04-09T15:56:29.495Z,35.60
2023-04-09T15:58:59.142Z,46.20
2023-04-09T16:01:28.615Z,38.70
2023-04-09T16:03:57.473Z,49.00
2023-04-09T16:06:26.342Z,40.60
2023-04-09T16:08:55.221Z,45.80
2023-04-09T16:11:24.077Z,44.00
2023-04-09T16:13:52.591Z,43.30
2023-04-09T16:16:21.128Z,49.00
2023-04-09T16:18:49.547Z,38.70
2023-04-09T16:21:18.105Z,44.80
2023-04-09T16:23:46.851Z,43.50
2023-04-09T16:26:15.674Z,51.40
2023-04-09T16:28:44.814Z,48.50
2023-04-09T16:31:14.697Z,50.50
2023-04-09T16:33:43.172Z,54.20
2023-04-09T16:36:11.960Z,48.10
2023-04-09T16:38:43.208Z,50.60
2023-04-09T16:41:11.806Z,60.40
2023-04-09T16:43:40.173Z,45.20
2023-04-09T16:46:09.038Z,44.30
2023-04-09T16:48:41.972Z,51.40
2023-04-09T16:51:10.748Z,48.50
2023-04-09T16:53:40.135Z,47.40
2023-04-09T16:56:09.432Z,47.90
2023-04-09T16:58:39.116Z,51.80
2023-04-09T17:01:08.053Z,55.10
2023-04-09T17:03:36.747Z,48.50
2023-04-09T17:06:06.318Z,60.40
2023-04-09T17:12:14.751Z,65.10
2023-04-09T17:14:44.650Z,63.50
2023-04-09T17:17:13.194Z,63.20
2023-04-09T17:19:42.984Z,69.40
2023-04-09T17:22:13.708Z,62.60
2023-04-09T17:24:42.074Z,71.40
2023-04-09T17:27:11.368Z,72.30
2023-04-09T17:29:41.209Z,64.30
2023-04-09T17:32:09.686Z,64.90
2023-04-09T17:34:38.245Z,74.10
2023-04-09T17:37:07.434Z,73.00
2023-04-09T17:39:37.165Z,68.00
2023-04-09T17:42:06.767Z,74.20
2023-04-09T17:44:35.770Z,72.70
2023-04-09T17:47:05.925Z,69.30
2023-04-09T17:49:34.548Z,78.00
2023-04-09T17:52:03.254Z,81.50
2023-04-09T17:54:35.003Z,80.50
2023-04-09T17:57:04.861Z,73.90
2023-04-09T17:59:34.907Z,70.90
2023-04-09T18:02:04.438Z,79.50
2023-04-09T18:04:36.182Z,84.90
2023-04-09T18:07:05.343Z,90.90
2023-04-09T18:09:35.981Z,81.20
2023-04-09T18:12:04.614Z,85.00
2023-04-09T18:14:33.911Z,87.00
2023-04-09T18:17:02.698Z,99.80
2023-04-09T18:19:31.726Z,92.80
2023-04-09T18:22:02.380Z,83.50
2023-04-09T18:24:33.342Z,76.30
2023-04-09T18:27:03.040Z,85.00
2023-04-09T18:29:32.200Z,85.50
2023-04-09T18:32:01.276Z,89.60
2023-04-09T18:34:30.151Z,84.90
2023-04-09T18:36:58.746Z,78.10
2023-04-09T18:39:27.741Z,76.60
2023-04-09T18:41:57.849Z,89.00
2023-04-09T18:44:26.249Z,82.50
2023-04-09T18:46:55.162Z,77.80
2023-04-09T18:49:24.266Z,80.00
2023-04-09T18:51:53.110Z,82.70
2023-04-09T18:54:21.497Z,82.70
2023-04-09T18:56:50.511Z,74.90
2023-04-09T18:59:19.233Z,66.40
2023-04-09T19:01:48.204Z,74.90
2023-04-09T19:04:16.607Z,75.40
2023-04-09T19:06:49.334Z,75.20
2023-04-09T19:09:18.064Z,73.60
2023-04-09T19:11:49.377Z,79.90
2023-04-09T19:14:17.941Z,93.60
2023-04-09T19:16:46.426Z,92.60
2023-04-09T19:19:14.908Z,99.20
2023-04-09T19:21:44.123Z,94.90
2023-04-09T19:24:12.592Z,74.50
2023-04-09T19:26:41.264Z,96.20
2023-04-09T19:29:09.880Z,105.60
2023-04-09T19:31:38.586Z,131.30
2023-04-09T19:34:07.338Z,115.30
2023-04-09T19:36:36.216Z,122.70
2023-04-09T19:39:06.516Z,124.10
2023-04-09T19:41:35.033Z,142.70
2023-04-09T19:44:07.596Z,140.50
2023-04-09T19:46:36.095Z,135.30
2023-04-09T19:49:04.574Z,120.20
2023-04-09T19:51:34.664Z,121.40
2023-04-09T19:54:03.599Z,117.50
2023-04-09T19:56:33.044Z,118.50
2023-04-09T19:59:02.642Z,126.40
2023-04-09T20:01:32.781Z,114.30
2023-04-09T20:04:02.408Z,124.10
2023-04-09T20:06:31.219Z,126.00
2023-04-09T20:09:01.219Z,109.40
2023-04-09T20:11:29.750Z,113.00
2023-04-09T20:13:58.950Z,105.20
2023-04-09T20:16:27.407Z,121.40
2023-04-09T20:18:56.242Z,100.20
2023-04-09T20:21:25.598Z,86.20
2023-04-09T20:23:54.245Z,93.90
2023-04-09T20:26:22.930Z,101.50
2023-04-09T20:28:51.895Z,107.40
2023-04-09T20:31:20.536Z,101.70
2023-04-09T20:33:49.297Z,87.40
2023-04-09T20:36:19.581Z,102.10
2023-04-09T20:39:13.591Z,101.70
2023-04-09T20:41:42.196Z,105.40
2023-04-09T20:44:11.177Z,109.70
2023-04-09T20:46:39.652Z,110.70
2023-04-09T20:49:08.139Z,118.30
2023-04-09T20:51:37.225Z,115.00
2023-04-09T20:54:06.040Z,117.80
2023-04-09T20:56:34.813Z,113.70
2023-04-09T20:59:03.800Z,126.40
2023-04-09T21:01:32.480Z,127.40
2023-04-09T21:04:01.057Z,114.20
2023-04-09T21:06:29.649Z,116.90
2023-04-09T21:08:59.733Z,126.30
2023-04-09T21:11:30.908Z,131.10
2023-04-09T21:13:59.288Z,134.00
2023-04-09T21:16:30.088Z,122.70
2023-04-09T21:18:58.721Z,126.80
2023-04-09T21:21:29.972Z,118.30
2023-04-09T21:23:58.335Z,123.70
2023-04-09T21:26:28.110Z,110.50
2023-04-09T21:28:58.479Z,119.20
2023-04-09T21:31:26.978Z,115.30
2023-04-09T21:33:55.440Z,126.70
2023-04-09T21:36:26.584Z,121.80
2023-04-09T21:38:55.157Z,113.10
2023-04-09T21:41:24.070Z,108.70
2023-04-09T21:43:52.642Z,129.00
2023-04-09T21:46:21.980Z,117.70
2023-04-09T21:48:50.552Z,112.10
2023-04-09T21:51:19.286Z,111.90
2023-04-09T21:53:48.515Z,110.10
2023-04-09T21:56:16.899Z,108.90
2023-04-09T21:58:45.375Z,132.50
2023-04-09T22:01:26.247Z,125.50
2023-04-09T22:04:00.420Z,114.70
2023-04-09T22:06:29.698Z,122.00
2023-04-09T22:08:58.730Z,119.30
2023-04-09T22:11:28.711Z,113.80
2023-04-09T22:13:57.617Z,116.60
2023-04-09T22:16:26.570Z,116.40
2023-04-09T22:18:55.373Z,133.20
2023-04-09T22:21:24.139Z,128.30
2023-04-09T22:23:52.650Z,126.10
2023-04-09T22:26:22.321Z,127.60
2023-04-09T22:28:51.171Z,123.70
2023-04-09T22:31:20.206Z,117.50
2023-04-09T22:33:48.575Z,131.80
2023-04-09T22:36:17.074Z,125.90
2023-04-09T22:38:45.949Z,120.30
2023-04-09T22:41:16.268Z,121.10
2023-04-09T22:43:44.857Z,118.60
2023-04-09T22:46:13.267Z,126.80
2023-04-09T22:48:44.766Z,122.80
2023-04-09T22:51:14.278Z,144.40
2023-04-09T22:53:42.780Z,120.60
2023-04-09T22:56:11.386Z,116.40
2023-04-09T22:58:40.558Z,126.00
2023-04-09T23:01:09.153Z,129.70
2023-04-09T23:03:37.653Z,127.30
2023-04-09T23:06:06.858Z,129.40
2023-04-09T23:08:35.195Z,125.50
2023-04-09T23:11:05.509Z,139.00
2023-04-09T23:13:34.209Z,119.10
2023-04-09T23:16:07.494Z,121.10
2023-04-09T23:18:36.588Z,106.60
2023-04-09T23:21:09.165Z,115.10
2023-04-09T23:23:39.111Z,119.10
2023-04-09T23:26:07.837Z,128.60
2023-04-09T23:28:36.301Z,108.20
2023-04-09T23:31:05.724Z,106.30
2023-04-09T23:33:34.757Z,116.10
2023-04-09T23:36:03.325Z,111.50
2023-04-09T23:38:31.917Z,115.50
2023-04-09T23:41:00.698Z,112.60
2023-04-09T23:43:29.082Z,107.70
2023-04-09T23:45:57.656Z,113.90
2023-04-09T23:48:26.147Z,124.60
2023-04-09T23:50:54.615Z,118.30
2023-04-09T23:53:23.000Z,130.30
2023-04-09T23:55:52.923Z,121.40
2023-04-09T23:58:22.124Z,114.30
